sensor_id;sensor_type;location;lat;lon;timestamp;pressure;altitude;pressure_sealevel;temperature;humidity
77112;BME280;66064;50.226;14.344;2023-04-21T00:00:50;99548.22;;;7.92;90.00
77112;BME280;66064;50.226;14.344;2023-04-21T00:03:20;99546.19;;;7.79;89.92
77112;BME280;66064;50.226;14.344;2023-04-21T00:05:51;99557.44;;;7.69;90.06
77112;BME280;66064;50.226;14.344;2023-04-21T00:08:17;99556.22;;;7.53;90.12
77112;BME280;66064;50.226;14.344;2023-04-21T00:10:44;99546.25;;;7.42;90.45
77112;BME280;66064;50.226;14.344;2023-04-21T00:13:11;99553.59;;;7.17;91.05
77112;BME280;66064;50.226;14.344;2023-04-21T00:15:37;99554.91;;;6.98;92.04
77112;BME280;66064;50.226;14.344;2023-04-21T00:18:03;99559.81;;;6.82;92.58
77112;BME280;66064;50.226;14.344;2023-04-21T00:20:30;99558.50;;;6.64;92.72
77112;BME280;66064;50.226;14.344;2023-04-21T00:22:56;99558.97;;;6.50;93.00
77112;BME280;66064;50.226;14.344;2023-04-21T00:25:23;99556.91;;;6.38;93.23
77112;BME280;66064;50.226;14.344;2023-04-21T00:27:50;99555.78;;;6.28;93.56
77112;BME280;66064;50.226;14.344;2023-04-21T00:30:16;99564.03;;;6.41;94.76
77112;BME280;66064;50.226;14.344;2023-04-21T00:32:42;99559.84;;;6.49;94.85
77112;BME280;66064;50.226;14.344;2023-04-21T00:35:09;99557.06;;;6.44;94.72
77112;BME280;66064;50.226;14.344;2023-04-21T00:37:35;99565.50;;;6.29;94.71
77112;BME280;66064;50.226;14.344;2023-04-21T00:40:02;99555.34;;;6.13;94.88
77112;BME280;66064;50.226;14.344;2023-04-21T00:42:29;99560.59;;;6.12;95.61
77112;BME280;66064;50.226;14.344;2023-04-21T00:44:55;99559.50;;;6.05;95.91
77112;BME280;66064;50.226;14.344;2023-04-21T00:47:21;99556.88;;;6.05;95.83
77112;BME280;66064;50.226;14.344;2023-04-21T00:49:47;99554.00;;;5.96;96.20
77112;BME280;66064;50.226;14.344;2023-04-21T00:52:14;99557.47;;;5.95;96.93
77112;BME280;66064;50.226;14.344;2023-04-21T00:54:42;99561.34;;;6.08;97.94
77112;BME280;66064;50.226;14.344;2023-04-21T00:57:10;99554.13;;;6.02;98.36
77112;BME280;66064;50.226;14.344;2023-04-21T00:59:36;99552.91;;;5.89;98.03
77112;BME280;66064;50.226;14.344;2023-04-21T01:02:02;99554.03;;;5.68;97.24
77112;BME280;66064;50.226;14.344;2023-04-21T01:04:28;99551.84;;;5.54;96.67
77112;BME280;66064;50.226;14.344;2023-04-21T01:07:00;99541.78;;;5.41;96.44
77112;BME280;66064;50.226;14.344;2023-04-21T01:09:26;99547.03;;;5.41;96.93
77112;BME280;66064;50.226;14.344;2023-04-21T01:14:29;99546.47;;;5.23;97.45
77112;BME280;66064;50.226;14.344;2023-04-21T01:16:55;99545.34;;;5.15;97.41
77112;BME280;66064;50.226;14.344;2023-04-21T01:19:22;99548.69;;;5.09;98.00
77112;BME280;66064;50.226;14.344;2023-04-21T01:21:50;99540.63;;;5.05;98.91
77112;BME280;66064;50.226;14.344;2023-04-21T01:24:18;99548.47;;;5.02;98.75
77112;BME280;66064;50.226;14.344;2023-04-21T01:26:45;99537.91;;;5.02;98.83
77112;BME280;66064;50.226;14.344;2023-04-21T01:29:15;99539.44;;;4.95;99.44
77112;BME280;66064;50.226;14.344;2023-04-21T01:31:41;99542.59;;;4.83;98.66
77112;BME280;66064;50.226;14.344;2023-04-21T01:34:09;99530.50;;;4.63;98.18
77112;BME280;66064;50.226;14.344;2023-04-21T01:36:35;99537.34;;;4.58;97.65
77112;BME280;66064;50.226;14.344;2023-04-21T01:39:02;99536.25;;;4.51;97.67
77112;BME280;66064;50.226;14.344;2023-04-21T01:41:29;99539.63;;;4.47;98.01
77112;BME280;66064;50.226;14.344;2023-04-21T01:43:55;99541.47;;;4.50;99.10
77112;BME280;66064;50.226;14.344;2023-04-21T01:46:21;99532.72;;;4.51;99.68
77112;BME280;66064;50.226;14.344;2023-04-21T01:48:47;99531.97;;;4.55;100.00
77112;BME280;66064;50.226;14.344;2023-04-21T01:51:13;99540.09;;;4.61;100.00
77112;BME280;66064;50.226;14.344;2023-04-21T01:53:39;99537.34;;;4.58;100.00
77112;BME280;66064;50.226;14.344;2023-04-21T01:56:05;99526.69;;;4.55;100.00
77112;BME280;66064;50.226;14.344;2023-04-21T01:58:31;99529.31;;;4.55;100.00
77112;BME280;66064;50.226;14.344;2023-04-21T02:00:57;99532.84;;;4.54;100.00
77112;BME280;66064;50.226;14.344;2023-04-21T02:03:23;99529.31;;;4.53;100.00
77112;BME280;66064;50.226;14.344;2023-04-21T02:05:49;99537.16;;;4.52;100.00
77112;BME280;66064;50.226;14.344;2023-04-21T02:08:16;99535.47;;;4.54;100.00
77112;BME280;66064;50.226;14.344;2023-04-21T02:10:42;99534.53;;;4.52;100.00
77112;BME280;66064;50.226;14.344;2023-04-21T02:13:08;99537.66;;;4.67;100.00
77112;BME280;66064;50.226;14.344;2023-04-21T02:15:36;99534.81;;;4.61;100.00
77112;BME280;66064;50.226;14.344;2023-04-21T02:18:02;99537.03;;;4.49;100.00
77112;BME280;66064;50.226;14.344;2023-04-21T02:20:28;99531.16;;;4.31;100.00
77112;BME280;66064;50.226;14.344;2023-04-21T02:22:54;99538.81;;;4.25;100.00
77112;BME280;66064;50.226;14.344;2023-04-21T02:25:20;99538.09;;;4.29;100.00
77112;BME280;66064;50.226;14.344;2023-04-21T02:27:46;99541.78;;;4.34;100.00
77112;BME280;66064;50.226;14.344;2023-04-21T02:30:12;99536.72;;;4.40;100.00
77112;BME280;66064;50.226;14.344;2023-04-21T02:32:38;99542.81;;;4.39;100.00
77112;BME280;66064;50.226;14.344;2023-04-21T02:35:04;99538.22;;;4.32;100.00
77112;BME280;66064;50.226;14.344;2023-04-21T02:37:30;99531.88;;;4.27;100.00
77112;BME280;66064;50.226;14.344;2023-04-21T02:39:56;99540.44;;;4.19;100.00
77112;BME280;66064;50.226;14.344;2023-04-21T02:42:22;99526.81;;;4.07;100.00
77112;BME280;66064;50.226;14.344;2023-04-21T02:44:48;99543.44;;;4.06;100.00
77112;BME280;66064;50.226;14.344;2023-04-21T02:47:15;99535.47;;;4.03;100.00
77112;BME280;66064;50.226;14.344;2023-04-21T02:49:41;99540.66;;;4.02;100.00
77112;BME280;66064;50.226;14.344;2023-04-21T02:52:07;99533.31;;;3.93;100.00
77112;BME280;66064;50.226;14.344;2023-04-21T02:54:33;99534.09;;;3.91;100.00
77112;BME280;66064;50.226;14.344;2023-04-21T02:56:59;99539.28;;;3.88;100.00
77112;BME280;66064;50.226;14.344;2023-04-21T02:59:26;99537.50;;;3.86;100.00
77112;BME280;66064;50.226;14.344;2023-04-21T03:01:52;99533.06;;;3.85;100.00
77112;BME280;66064;50.226;14.344;2023-04-21T03:04:18;99529.53;;;3.85;100.00
77112;BME280;66064;50.226;14.344;2023-04-21T03:06:44;99532.75;;;3.78;100.00
77112;BME280;66064;50.226;14.344;2023-04-21T03:09:10;99532.75;;;3.78;100.00
77112;BME280;66064;50.226;14.344;2023-04-21T03:11:36;99536.09;;;3.72;100.00
77112;BME280;66064;50.226;14.344;2023-04-21T03:14:02;99538.44;;;3.65;100.00
77112;BME280;66064;50.226;14.344;2023-04-21T03:16:28;99538.03;;;3.54;100.00
77112;BME280;66064;50.226;14.344;2023-04-21T03:18:54;99532.41;;;3.45;100.00
77112;BME280;66064;50.226;14.344;2023-04-21T03:21:20;99535.81;;;3.42;100.00
77112;BME280;66064;50.226;14.344;2023-04-21T03:23:46;99532.25;;;3.40;100.00
77112;BME280;66064;50.226;14.344;2023-04-21T03:26:12;99530.47;;;3.39;100.00
77112;BME280;66064;50.226;14.344;2023-04-21T03:28:38;99532.47;;;3.46;100.00
77112;BME280;66064;50.226;14.344;2023-04-21T03:31:03;99536.31;;;3.55;100.00
77112;BME280;66064;50.226;14.344;2023-04-21T03:33:30;99537.25;;;3.57;100.00
77112;BME280;66064;50.226;14.344;2023-04-21T03:35:55;99541.56;;;3.55;100.00
77112;BME280;66064;50.226;14.344;2023-04-21T03:38:22;99539.72;;;3.52;100.00
77112;BME280;66064;50.226;14.344;2023-04-21T03:40:47;99529.00;;;3.47;100.00
77112;BME280;66064;50.226;14.344;2023-04-21T03:43:13;99531.50;;;3.44;100.00
77112;BME280;66064;50.226;14.344;2023-04-21T03:45:39;99541.31;;;3.48;100.00
77112;BME280;66064;50.226;14.344;2023-04-21T03:48:06;99539.78;;;3.54;100.00
77112;BME280;66064;50.226;14.344;2023-04-21T03:50:31;99537.91;;;3.51;100.00
77112;BME280;66064;50.226;14.344;2023-04-21T03:52:57;99537.25;;;3.57;100.00
77112;BME280;66064;50.226;14.344;2023-04-21T03:55:23;99533.66;;;3.55;100.00
77112;BME280;66064;50.226;14.344;2023-04-21T03:57:49;99540.81;;;3.59;100.00
77112;BME280;66064;50.226;14.344;2023-04-21T04:00:15;99539.16;;;3.61;100.00
77112;BME280;66064;50.226;14.344;2023-04-21T04:02:41;99538.59;;;3.69;100.00
77112;BME280;66064;50.226;14.344;2023-04-21T04:05:08;99528.06;;;3.69;100.00
77112;BME280;66064;50.226;14.344;2023-04-21T04:07:34;99540.34;;;3.69;100.00
77112;BME280;66064;50.226;14.344;2023-04-21T04:10:00;99539.50;;;3.70;100.00
77112;BME280;66064;50.226;14.344;2023-04-21T04:12:26;99544.75;;;3.70;100.00
77112;BME280;66064;50.226;14.344;2023-04-21T04:14:52;99547.41;;;3.70;100.00
77112;BME280;66064;50.226;14.344;2023-04-21T04:17:18;99551.91;;;3.74;100.00
77112;BME280;66064;50.226;14.344;2023-04-21T04:19:44;99549.97;;;3.68;100.00
77112;BME280;66064;50.226;14.344;2023-04-21T04:22:11;99549.00;;;3.66;100.00
77112;BME280;66064;50.226;14.344;2023-04-21T04:24:36;99548.34;;;3.72;100.00
77112;BME280;66064;50.226;14.344;2023-04-21T04:27:03;99544.88;;;3.73;100.00
77112;BME280;66064;50.226;14.344;2023-04-21T04:29:28;99552.03;;;3.77;100.00
77112;BME280;66064;50.226;14.344;2023-04-21T04:31:55;99540.38;;;3.94;100.00
77112;BME280;66064;50.226;14.344;2023-04-21T04:34:22;99547.25;;;4.14;100.00
77112;BME280;66064;50.226;14.344;2023-04-21T04:36:48;99552.63;;;4.17;100.00
77112;BME280;66064;50.226;14.344;2023-04-21T04:39:16;99558.16;;;4.25;100.00
77112;BME280;66064;50.226;14.344;2023-04-21T04:41:42;99554.13;;;4.35;100.00
77112;BME280;66064;50.226;14.344;2023-04-21T04:44:08;99563.59;;;4.55;100.00
77112;BME280;66064;50.226;14.344;2023-04-21T04:46:34;99552.78;;;5.00;100.00
77112;BME280;66064;50.226;14.344;2023-04-21T04:49:00;99557.34;;;5.32;100.00
77112;BME280;66064;50.226;14.344;2023-04-21T04:51:27;99555.81;;;5.70;99.64
77112;BME280;66064;50.226;14.344;2023-04-21T04:53:52;99559.44;;;6.02;96.96
77112;BME280;66064;50.226;14.344;2023-04-21T04:56:18;99556.53;;;6.24;93.18
77112;BME280;66064;50.226;14.344;2023-04-21T04:58:44;99545.69;;;6.47;89.60
77112;BME280;66064;50.226;14.344;2023-04-21T05:01:14;99547.47;;;6.82;90.22
77112;BME280;66064;50.226;14.344;2023-04-21T05:03:41;99543.06;;;7.19;89.54
77112;BME280;66064;50.226;14.344;2023-04-21T05:06:07;99544.22;;;7.31;87.66
77112;BME280;66064;50.226;14.344;2023-04-21T05:08:34;99545.97;;;7.70;87.09
77112;BME280;66064;50.226;14.344;2023-04-21T05:11:00;99547.28;;;8.32;84.01
77112;BME280;66064;50.226;14.344;2023-04-21T05:13:26;99546.81;;;9.06;83.46
77112;BME280;66064;50.226;14.344;2023-04-21T05:15:57;99546.00;;;9.72;79.51
77112;BME280;66064;50.226;14.344;2023-04-21T05:18:23;99550.25;;;10.27;78.19
77112;BME280;66064;50.226;14.344;2023-04-21T05:20:49;99541.41;;;11.27;74.04
77112;BME280;66064;50.226;14.344;2023-04-21T05:23:15;99547.94;;;11.74;73.53
77112;BME280;66064;50.226;14.344;2023-04-21T05:25:41;99548.16;;;12.20;71.77
77112;BME280;66064;50.226;14.344;2023-04-21T05:28:07;99534.94;;;12.70;69.58
77112;BME280;66064;50.226;14.344;2023-04-21T05:30:33;99537.63;;;12.75;69.29
77112;BME280;66064;50.226;14.344;2023-04-21T05:32:58;99541.19;;;12.83;67.09
77112;BME280;66064;50.226;14.344;2023-04-21T05:35:25;99540.31;;;13.46;66.36
77112;BME280;66064;50.226;14.344;2023-04-21T05:37:50;99535.53;;;14.38;63.11
77112;BME280;66064;50.226;14.344;2023-04-21T05:40:17;99532.59;;;14.81;61.20
77112;BME280;66064;50.226;14.344;2023-04-21T05:42:42;99545.06;;;14.88;59.02
77112;BME280;66064;50.226;14.344;2023-04-21T05:45:09;99533.16;;;15.22;57.88
77112;BME280;66064;50.226;14.344;2023-04-21T05:47:34;99532.19;;;15.31;57.70
77112;BME280;66064;50.226;14.344;2023-04-21T05:50:02;99529.81;;;15.91;54.74
77112;BME280;66064;50.226;14.344;2023-04-21T05:52:28;99530.72;;;17.17;52.56
77112;BME280;66064;50.226;14.344;2023-04-21T05:54:54;99530.91;;;18.03;49.67
77112;BME280;66064;50.226;14.344;2023-04-21T05:57:20;99513.97;;;18.40;48.22
77112;BME280;66064;50.226;14.344;2023-04-21T05:59:46;99520.09;;;18.48;46.71
77112;BME280;66064;50.226;14.344;2023-04-21T06:02:11;99517.03;;;18.65;45.92
77112;BME280;66064;50.226;14.344;2023-04-21T06:04:38;99523.91;;;18.78;44.96
77112;BME280;66064;50.226;14.344;2023-04-21T06:07:07;99519.63;;;19.76;44.39
77112;BME280;66064;50.226;14.344;2023-04-21T06:09:35;99516.88;;;20.41;42.51
77112;BME280;66064;50.226;14.344;2023-04-21T06:12:02;99525.94;;;20.07;43.37
77112;BME280;66064;50.226;14.344;2023-04-21T06:14:28;99518.91;;;20.62;42.80
77112;BME280;66064;50.226;14.344;2023-04-21T06:16:54;99525.97;;;20.38;41.86
77112;BME280;66064;50.226;14.344;2023-04-21T06:19:20;99523.78;;;21.35;40.27
77112;BME280;66064;50.226;14.344;2023-04-21T06:21:46;99525.03;;;19.76;42.71
77112;BME280;66064;50.226;14.344;2023-04-21T06:24:12;99521.72;;;21.43;39.63
77112;BME280;66064;50.226;14.344;2023-04-21T06:26:38;99523.09;;;21.79;38.42
77112;BME280;66064;50.226;14.344;2023-04-21T06:29:04;99507.38;;;22.39;37.32
77112;BME280;66064;50.226;14.344;2023-04-21T06:31:29;99506.94;;;22.26;36.43
77112;BME280;66064;50.226;14.344;2023-04-21T06:33:56;99514.44;;;21.70;37.83
77112;BME280;66064;50.226;14.344;2023-04-21T06:36:21;99506.84;;;21.79;37.36
77112;BME280;66064;50.226;14.344;2023-04-21T06:38:48;99506.06;;;22.25;36.47
77112;BME280;66064;50.226;14.344;2023-04-21T06:41:14;99503.38;;;20.96;38.05
77112;BME280;66064;50.226;14.344;2023-04-21T06:43:40;99520.28;;;21.31;37.74
77112;BME280;66064;50.226;14.344;2023-04-21T06:46:06;99518.31;;;21.36;37.71
77112;BME280;66064;50.226;14.344;2023-04-21T06:48:32;99510.50;;;21.27;37.80
77112;BME280;66064;50.226;14.344;2023-04-21T06:50:58;99501.41;;;21.02;38.77
77112;BME280;66064;50.226;14.344;2023-04-21T06:53:25;99498.72;;;22.74;35.79
77112;BME280;66064;50.226;14.344;2023-04-21T06:55:51;99515.22;;;21.73;38.02
77112;BME280;66064;50.226;14.344;2023-04-21T06:58:18;99512.91;;;20.80;38.25
77112;BME280;66064;50.226;14.344;2023-04-21T07:00:43;99516.38;;;22.16;36.01
77112;BME280;66064;50.226;14.344;2023-04-21T07:03:10;99513.28;;;20.70;38.27
77112;BME280;66064;50.226;14.344;2023-04-21T07:05:37;99519.03;;;20.59;39.09
77112;BME280;66064;50.226;14.344;2023-04-21T07:08:03;99513.56;;;20.60;38.50
77112;BME280;66064;50.226;14.344;2023-04-21T07:10:28;99509.28;;;20.22;39.95
77112;BME280;66064;50.226;14.344;2023-04-21T07:12:55;99515.09;;;21.25;37.35
77112;BME280;66064;50.226;14.344;2023-04-21T07:15:21;99508.44;;;21.35;38.27
77112;BME280;66064;50.226;14.344;2023-04-21T07:17:47;99508.38;;;21.37;36.86
77112;BME280;66064;50.226;14.344;2023-04-21T07:20:13;99506.38;;;21.68;36.69
77112;BME280;66064;50.226;14.344;2023-04-21T07:22:39;99503.19;;;22.30;35.50
77112;BME280;66064;50.226;14.344;2023-04-21T07:25:05;99500.91;;;22.19;35.77
77112;BME280;66064;50.226;14.344;2023-04-21T07:27:32;99494.34;;;23.15;33.75
77112;BME280;66064;50.226;14.344;2023-04-21T07:29:59;99499.41;;;23.87;33.07
77112;BME280;66064;50.226;14.344;2023-04-21T07:32:25;99498.38;;;23.27;34.09
77112;BME280;66064;50.226;14.344;2023-04-21T07:34:51;99498.75;;;24.21;32.62
77112;BME280;66064;50.226;14.344;2023-04-21T07:37:17;99490.75;;;24.94;31.09
77112;BME280;66064;50.226;14.344;2023-04-21T07:39:43;99494.09;;;24.24;31.48
77112;BME280;66064;50.226;14.344;2023-04-21T07:42:09;99489.84;;;24.37;31.96
77112;BME280;66064;50.226;14.344;2023-04-21T07:44:35;99490.34;;;23.24;32.86
77112;BME280;66064;50.226;14.344;2023-04-21T07:47:02;99487.28;;;24.14;32.00
77112;BME280;66064;50.226;14.344;2023-04-21T07:49:28;99481.66;;;26.33;29.33
77112;BME280;66064;50.226;14.344;2023-04-21T07:51:54;99478.16;;;25.81;29.15
77112;BME280;66064;50.226;14.344;2023-04-21T07:54:19;99478.78;;;26.19;28.81
77112;BME280;66064;50.226;14.344;2023-04-21T07:56:46;99499.78;;;25.14;30.45
77112;BME280;66064;50.226;14.344;2023-04-21T07:59:11;99490.81;;;24.16;31.63
77112;BME280;66064;50.226;14.344;2023-04-21T08:01:38;99479.56;;;24.44;30.84
77112;BME280;66064;50.226;14.344;2023-04-21T08:04:03;99492.50;;;24.39;31.64
77112;BME280;66064;50.226;14.344;2023-04-21T08:06:30;99480.13;;;25.07;30.45
77112;BME280;66064;50.226;14.344;2023-04-21T08:08:57;99487.16;;;25.30;30.90
77112;BME280;66064;50.226;14.344;2023-04-21T08:11:24;99481.47;;;25.86;29.65
77112;BME280;66064;50.226;14.344;2023-04-21T08:13:50;99471.31;;;26.56;28.35
77112;BME280;66064;50.226;14.344;2023-04-21T08:16:16;99481.44;;;25.34;29.64
77112;BME280;66064;50.226;14.344;2023-04-21T08:18:42;99480.44;;;23.23;33.16
77112;BME280;66064;50.226;14.344;2023-04-21T08:21:08;99489.09;;;22.44;35.21
77112;BME280;66064;50.226;14.344;2023-04-21T08:23:33;99492.09;;;22.83;34.74
77112;BME280;66064;50.226;14.344;2023-04-21T08:26:01;99484.38;;;22.72;34.19
77112;BME280;66064;50.226;14.344;2023-04-21T08:28:27;99476.03;;;24.98;31.29
77112;BME280;66064;50.226;14.344;2023-04-21T08:30:53;99472.50;;;24.20;31.78
77112;BME280;66064;50.226;14.344;2023-04-21T08:33:19;99469.03;;;25.29;30.69
77112;BME280;66064;50.226;14.344;2023-04-21T08:35:45;99464.03;;;25.20;29.52
77112;BME280;66064;50.226;14.344;2023-04-21T08:38:11;99463.06;;;25.03;31.71
77112;BME280;66064;50.226;14.344;2023-04-21T08:40:37;99466.00;;;25.87;29.67
77112;BME280;66064;50.226;14.344;2023-04-21T08:43:04;99465.75;;;24.49;31.62
77112;BME280;66064;50.226;14.344;2023-04-21T08:45:32;99471.09;;;24.69;31.39
77112;BME280;66064;50.226;14.344;2023-04-21T08:47:59;99461.13;;;25.93;29.92
77112;BME280;66064;50.226;14.344;2023-04-21T08:50:27;99453.44;;;27.89;27.17
77112;BME280;66064;50.226;14.344;2023-04-21T08:52:54;99460.09;;;25.96;30.03
77112;BME280;66064;50.226;14.344;2023-04-21T08:55:29;99457.56;;;26.41;28.63
77112;BME280;66064;50.226;14.344;2023-04-21T08:57:56;99470.97;;;25.61;30.09
77112;BME280;66064;50.226;14.344;2023-04-21T09:00:22;99465.19;;;25.85;29.89
77112;BME280;66064;50.226;14.344;2023-04-21T09:02:55;99467.47;;;24.87;30.65
77112;BME280;66064;50.226;14.344;2023-04-21T09:05:27;99466.28;;;25.12;31.32
77112;BME280;66064;50.226;14.344;2023-04-21T09:08:12;99459.84;;;27.28;28.64
77112;BME280;66064;50.226;14.344;2023-04-21T09:10:47;99451.81;;;28.98;25.37
77112;BME280;66064;50.226;14.344;2023-04-21T09:13:13;99459.88;;;26.80;27.60
77112;BME280;66064;50.226;14.344;2023-04-21T09:15:40;99459.25;;;27.52;27.03
77112;BME280;66064;50.226;14.344;2023-04-21T09:20:38;99446.72;;;27.64;26.83
77112;BME280;66064;50.226;14.344;2023-04-21T09:23:04;99454.59;;;26.77;29.15
77112;BME280;66064;50.226;14.344;2023-04-21T09:25:32;99451.59;;;26.51;28.18
77112;BME280;66064;50.226;14.344;2023-04-21T09:28:01;99446.13;;;27.13;27.60
77112;BME280;66064;50.226;14.344;2023-04-21T09:30:27;99452.28;;;26.86;27.25
77112;BME280;66064;50.226;14.344;2023-04-21T09:32:57;99449.13;;;27.25;27.55
77112;BME280;66064;50.226;14.344;2023-04-21T09:35:33;99451.16;;;27.51;27.14
77112;BME280;66064;50.226;14.344;2023-04-21T09:38:03;99445.41;;;26.14;28.80
77112;BME280;66064;50.226;14.344;2023-04-21T09:40:29;99443.56;;;26.79;27.39
77112;BME280;66064;50.226;14.344;2023-04-21T09:42:56;99434.97;;;26.71;27.98
77112;BME280;66064;50.226;14.344;2023-04-21T09:45:26;99436.44;;;26.29;29.23
77112;BME280;66064;50.226;14.344;2023-04-21T09:47:55;99439.06;;;25.12;29.98
77112;BME280;66064;50.226;14.344;2023-04-21T09:50:23;99439.69;;;25.34;29.26
77112;BME280;66064;50.226;14.344;2023-04-21T09:52:53;99428.06;;;27.27;27.16
77112;BME280;66064;50.226;14.344;2023-04-21T09:55:25;99425.41;;;28.28;25.75
77112;BME280;66064;50.226;14.344;2023-04-21T09:57:57;99421.56;;;26.35;28.19
77112;BME280;66064;50.226;14.344;2023-04-21T10:00:27;99429.75;;;25.85;27.64
77112;BME280;66064;50.226;14.344;2023-04-21T10:02:54;99435.66;;;24.52;30.50
77112;BME280;66064;50.226;14.344;2023-04-21T10:05:22;99434.75;;;25.76;29.58
77112;BME280;66064;50.226;14.344;2023-04-21T10:07:48;99429.69;;;25.17;29.64
77112;BME280;66064;50.226;14.344;2023-04-21T10:10:18;99421.28;;;25.39;29.35
77112;BME280;66064;50.226;14.344;2023-04-21T10:12:45;99415.06;;;26.69;28.53
77112;BME280;66064;50.226;14.344;2023-04-21T10:15:47;99416.72;;;25.74;28.57
77112;BME280;66064;50.226;14.344;2023-04-21T10:18:18;99420.09;;;25.44;29.05
77112;BME280;66064;50.226;14.344;2023-04-21T10:20:56;99413.50;;;25.66;27.78
77112;BME280;66064;50.226;14.344;2023-04-21T10:26:20;99412.81;;;25.28;28.55
77112;BME280;66064;50.226;14.344;2023-04-21T10:28:59;99409.19;;;24.91;29.02
77112;BME280;66064;50.226;14.344;2023-04-21T10:31:31;99399.31;;;25.07;28.50
77112;BME280;66064;50.226;14.344;2023-04-21T10:39:10;99398.53;;;24.13;30.00
77112;BME280;66064;50.226;14.344;2023-04-21T10:41:38;99404.94;;;24.86;29.72
77112;BME280;66064;50.226;14.344;2023-04-21T10:46:50;99402.38;;;23.70;30.78
77112;BME280;66064;50.226;14.344;2023-04-21T10:49:21;99389.94;;;23.64;31.45
77112;BME280;66064;50.226;14.344;2023-04-21T10:54:42;99390.28;;;23.96;30.93
77112;BME280;66064;50.226;14.344;2023-04-21T10:57:12;99382.94;;;24.35;30.03
77112;BME280;66064;50.226;14.344;2023-04-21T10:59:39;99383.00;;;24.53;28.97
77112;BME280;66064;50.226;14.344;2023-04-21T11:02:16;99388.41;;;24.71;28.75
77112;BME280;66064;50.226;14.344;2023-04-21T11:04:42;99381.56;;;24.82;29.81
77112;BME280;66064;50.226;14.344;2023-04-21T11:07:17;99385.44;;;24.59;29.21
77112;BME280;66064;50.226;14.344;2023-04-21T11:09:45;99380.34;;;25.06;29.60
77112;BME280;66064;50.226;14.344;2023-04-21T11:12:16;99372.00;;;24.18;30.25
77112;BME280;66064;50.226;14.344;2023-04-21T11:14:45;99371.09;;;26.26;27.46
77112;BME280;66064;50.226;14.344;2023-04-21T11:17:16;99373.88;;;25.26;28.40
77112;BME280;66064;50.226;14.344;2023-04-21T11:22:51;99360.72;;;23.29;30.64
77112;BME280;66064;50.226;14.344;2023-04-21T11:25:17;99379.72;;;21.98;32.26
77112;BME280;66064;50.226;14.344;2023-04-21T11:27:52;99376.78;;;21.33;33.37
77112;BME280;66064;50.226;14.344;2023-04-21T11:30:19;99373.94;;;22.30;31.66
77112;BME280;66064;50.226;14.344;2023-04-21T11:36:58;99365.84;;;23.76;29.50
77112;BME280;66064;50.226;14.344;2023-04-21T11:39:18;99358.75;;;24.11;28.74
77112;BME280;66064;50.226;14.344;2023-04-21T11:41:47;99355.69;;;22.12;31.80
77112;BME280;66064;50.226;14.344;2023-04-21T11:44:36;99373.59;;;20.69;35.68
77112;BME280;66064;50.226;14.344;2023-04-21T11:49:56;99368.00;;;20.47;37.11
77112;BME280;66064;50.226;14.344;2023-04-21T11:52:30;99363.94;;;22.09;33.71
77112;BME280;66064;50.226;14.344;2023-04-21T11:55:05;99357.13;;;23.08;31.13
77112;BME280;66064;50.226;14.344;2023-04-21T11:57:32;99354.88;;;23.58;31.18
77112;BME280;66064;50.226;14.344;2023-04-21T12:00:00;99338.25;;;24.03;28.76
77112;BME280;66064;50.226;14.344;2023-04-21T12:02:28;99352.53;;;24.46;28.49
77112;BME280;66064;50.226;14.344;2023-04-21T12:07:36;99368.34;;;23.21;29.95
77112;BME280;66064;50.226;14.344;2023-04-21T12:10:17;99355.00;;;22.94;30.84
77112;BME280;66064;50.226;14.344;2023-04-21T12:12:44;99351.25;;;22.77;31.80
77112;BME280;66064;50.226;14.344;2023-04-21T12:15:16;99354.34;;;23.10;30.71
77112;BME280;66064;50.226;14.344;2023-04-21T12:17:45;99358.94;;;23.08;30.35
77112;BME280;66064;50.226;14.344;2023-04-21T12:20:15;99351.53;;;22.91;31.57
77112;BME280;66064;50.226;14.344;2023-04-21T12:22:42;99359.19;;;21.44;31.84
77112;BME280;66064;50.226;14.344;2023-04-21T12:25:08;99358.94;;;20.20;33.31
77112;BME280;66064;50.226;14.344;2023-04-21T12:27:34;99360.25;;;20.36;34.56
77112;BME280;66064;50.226;14.344;2023-04-21T12:30:01;99343.66;;;21.00;34.34
77112;BME280;66064;50.226;14.344;2023-04-21T12:32:27;99343.97;;;21.65;33.38
77112;BME280;66064;50.226;14.344;2023-04-21T12:34:54;99334.69;;;21.72;33.65
77112;BME280;66064;50.226;14.344;2023-04-21T12:37:20;99327.88;;;21.60;32.74
77112;BME280;66064;50.226;14.344;2023-04-21T12:39:46;99349.09;;;20.73;34.21
77112;BME280;66064;50.226;14.344;2023-04-21T12:42:12;99346.28;;;20.76;33.52
77112;BME280;66064;50.226;14.344;2023-04-21T12:44:38;99338.38;;;20.70;34.59
77112;BME280;66064;50.226;14.344;2023-04-21T12:47:05;99335.88;;;20.90;33.38
77112;BME280;66064;50.226;14.344;2023-04-21T12:49:31;99341.56;;;20.29;33.23
77112;BME280;66064;50.226;14.344;2023-04-21T12:51:57;99346.75;;;20.36;34.35
77112;BME280;66064;50.226;14.344;2023-04-21T12:54:24;99333.16;;;20.64;33.34
77112;BME280;66064;50.226;14.344;2023-04-21T12:56:50;99329.44;;;20.68;33.60
77112;BME280;66064;50.226;14.344;2023-04-21T12:59:16;99328.69;;;20.89;33.06
77112;BME280;66064;50.226;14.344;2023-04-21T13:01:42;99324.81;;;20.72;33.85
77112;BME280;66064;50.226;14.344;2023-04-21T13:04:08;99324.06;;;20.67;34.50
77112;BME280;66064;50.226;14.344;2023-04-21T13:06:34;99324.22;;;20.62;34.89
77112;BME280;66064;50.226;14.344;2023-04-21T13:09:03;99323.59;;;20.80;34.33
77112;BME280;66064;50.226;14.344;2023-04-21T13:11:30;99330.22;;;20.96;33.22
77112;BME280;66064;50.226;14.344;2023-04-21T13:13:56;99325.78;;;20.69;33.17
77112;BME280;66064;50.226;14.344;2023-04-21T13:16:23;99314.34;;;20.87;32.72
77112;BME280;66064;50.226;14.344;2023-04-21T13:18:50;99313.34;;;20.90;33.92
77112;BME280;66064;50.226;14.344;2023-04-21T13:21:16;99315.31;;;20.85;33.04
77112;BME280;66064;50.226;14.344;2023-04-21T13:23:42;99307.06;;;20.89;32.51